Time;durP1;ratioP1;P1;durP2;ratioP2;P2;SDS_P1;SDS_P2;PMS_P1;PMS_P2;Temp;Humidity;BMP_temperature;BMP_pressure;BME280_temperature;BME280_humidity;BME280_pressure;Samples;Min_cycle;Max_cycle;Signal;HPM_P1;HPM_P2
2022/09/22 00:01:37;;;;;;;11.83;5.90;;;7.30;99.90;;;;;;4994091;28;20177;-69
2022/09/22 00:04:05;;;;;;;7.83;6.30;;;7.30;99.90;;;;;;4994121;28;20200;-69
2022/09/22 00:06:50;;;;;;;9.20;6.13;;;7.30;99.90;;;;;;5008629;28;20179;-69
2022/09/22 00:09:18;;;;;;;11.60;6.00;;;7.30;99.90;;;;;;5032995;28;20195;-69
2022/09/22 00:11:48;;;;;;;9.23;7.23;;;7.30;99.90;;;;;;5027245;28;20184;-69
2022/09/22 00:14:27;;;;;;;9.33;6.17;;;7.30;99.90;;;;;;5013699;28;20640;-69
2022/09/22 00:17:00;;;;;;;12.57;6.83;;;7.20;99.90;;;;;;5014730;28;20250;-69
2022/09/22 00:19:29;;;;;;;8.23;6.77;;;7.20;99.90;;;;;;5015065;28;20198;-69
2022/09/22 00:21:56;;;;;;;10.73;6.60;;;7.10;99.90;;;;;;5014579;28;20488;-69
2022/09/22 00:24:23;;;;;;;8.67;6.63;;;7.10;99.90;;;;;;5014506;28;20236;-69
2022/09/22 00:26:50;;;;;;;8.30;6.10;;;7.00;99.90;;;;;;5014586;28;20194;-69
2022/09/22 00:29:16;;;;;;;8.27;6.13;;;7.00;99.90;;;;;;4995868;28;20200;-69
2022/09/22 00:31:43;;;;;;;10.93;6.80;;;7.00;99.90;;;;;;4993682;28;20662;-69
2022/09/22 00:34:16;;;;;;;10.17;7.10;;;7.00;99.90;;;;;;4995316;28;20181;-69
2022/09/22 00:36:43;;;;;;;11.30;6.67;;;7.00;99.90;;;;;;5009783;28;20293;-69
2022/09/22 00:39:09;;;;;;;9.10;6.67;;;7.00;99.90;;;;;;5033991;28;20229;-69
2022/09/22 00:41:39;;;;;;;11.53;7.10;;;7.00;99.90;;;;;;5027921;28;20238;-69
2022/09/22 00:44:33;;;;;;;10.23;7.10;;;7.00;99.90;;;;;;5014309;28;20153;-69
2022/09/22 00:47:25;;;;;;;10.33;7.73;;;7.00;99.90;;;;;;5014633;28;20176;-69
2022/09/22 00:50:09;;;;;;;12.37;8.13;;;7.00;99.90;;;;;;5014406;28;20208;-69
2022/09/22 00:52:49;;;;;;;9.20;7.50;;;6.90;99.90;;;;;;5015021;28;20649;-69
2022/09/22 00:55:43;;;;;;;11.37;7.93;;;6.90;99.90;;;;;;5014117;28;20179;-69
2022/09/22 00:58:14;;;;;;;8.73;7.03;;;6.90;99.90;;;;;;4996850;28;20228;-69
2022/09/22 01:00:39;;;;;;;10.13;7.30;;;6.90;99.90;;;;;;4993562;28;20198;-69
2022/09/22 01:03:10;;;;;;;11.17;7.63;;;6.80;99.90;;;;;;4994702;28;20255;-69
2022/09/22 01:05:37;;;;;;;11.27;8.17;;;6.80;99.90;;;;;;5009724;28;20183;-69
2022/09/22 01:08:03;;;;;;;11.57;7.63;;;6.80;99.90;;;;;;5031059;28;20212;-69
2022/09/22 01:10:29;;;;;;;10.23;7.83;;;6.70;99.90;;;;;;5033767;28;20198;-69
2022/09/22 01:12:58;;;;;;;11.87;8.03;;;6.70;99.90;;;;;;5018172;28;20188;-69
2022/09/22 01:15:33;;;;;;;10.63;8.00;;;6.60;99.90;;;;;;5014441;28;20208;-69
2022/09/22 01:18:13;;;;;;;14.97;7.87;;;6.60;99.90;;;;;;5013989;28;20206;-69
2022/09/22 01:20:48;;;;;;;8.53;7.73;;;6.60;99.90;;;;;;5014437;28;20512;-69
2022/09/22 01:23:53;;;;;;;10.67;8.17;;;6.60;99.90;;;;;;5014035;28;20198;-69
2022/09/22 01:26:31;;;;;;;9.63;8.00;;;6.60;99.90;;;;;;4983480;28;20220;-69
2022/09/22 01:29:33;;;;;;;9.67;7.03;;;6.60;99.90;;;;;;4996670;28;20200;-69
2022/09/22 01:32:16;;;;;;;9.73;6.77;;;6.40;99.90;;;;;;4994388;28;20223;-69
2022/09/22 01:34:47;;;;;;;8.70;7.27;;;6.20;99.90;;;;;;4994750;28;20634;-69
2022/09/22 01:37:28;;;;;;;11.67;6.80;;;6.20;99.90;;;;;;5017146;28;20241;-69
2022/09/22 01:40:04;;;;;;;9.30;7.07;;;6.30;99.90;;;;;;5033495;28;20195;-69
2022/09/22 01:42:43;;;;;;;10.43;7.23;;;6.30;99.90;;;;;;5021067;28;20550;-69
2022/09/22 01:45:10;;;;;;;10.97;7.10;;;6.30;99.90;;;;;;5014394;28;20183;-69
2022/09/22 01:47:47;;;;;;;12.00;6.90;;;6.30;99.90;;;;;;5013783;28;20254;-69
2022/09/22 01:50:24;;;;;;;11.40;7.50;;;6.40;99.90;;;;;;5013719;28;20199;-69
2022/09/22 01:52:52;;;;;;;8.50;7.20;;;6.40;99.90;;;;;;5015371;28;20598;-70
2022/09/22 01:55:39;;;;;;;9.10;7.27;;;6.40;99.90;;;;;;5014568;28;20188;-70
2022/09/22 01:58:19;;;;;;;11.83;7.13;;;6.40;99.90;;;;;;5017986;28;20209;-70
2022/09/22 02:00:52;;;;;;;8.40;7.00;;;6.40;99.90;;;;;;5017534;28;20164;-70
2022/09/22 02:03:42;;;;;;;8.33;7.13;;;6.40;99.90;;;;;;5016064;28;20171;-71
2022/09/22 02:06:12;;;;;;;10.20;7.37;;;6.40;99.90;;;;;;5007606;28;20195;-70
2022/09/22 02:08:49;;;;;;;9.37;7.60;;;6.40;99.90;;;;;;5035576;28;20280;-70
2022/09/22 02:11:15;;;;;;;9.53;7.63;;;6.30;99.90;;;;;;5033375;28;20187;-70
2022/09/22 02:13:43;;;;;;;9.93;6.87;;;6.30;99.90;;;;;;5016961;28;20172;-70
2022/09/22 02:16:11;;;;;;;10.13;7.33;;;6.30;99.90;;;;;;5016889;28;20262;-74
2022/09/22 02:18:42;;;;;;;10.07;7.20;;;6.20;99.90;;;;;;5016852;28;20199;-70
2022/09/22 02:21:09;;;;;;;9.03;7.40;;;6.20;99.90;;;;;;5016957;28;20215;-71
2022/09/22 02:23:35;;;;;;;10.57;7.60;;;6.20;99.90;;;;;;5016371;28;20172;-70
2022/09/22 02:26:03;;;;;;;10.47;6.93;;;6.10;99.90;;;;;;5015513;28;20176;-70
2022/09/22 02:28:31;;;;;;;10.90;6.97;;;6.10;99.90;;;;;;5004549;28;20188;-70
2022/09/22 02:31:00;;;;;;;13.53;7.67;;;6.10;99.90;;;;;;4997032;28;20177;-71
2022/09/22 02:33:27;;;;;;;10.27;7.50;;;6.20;99.90;;;;;;4995778;28;20176;-71
2022/09/22 02:36:40;;;;;;;9.83;7.23;;;6.10;99.90;;;;;;4999869;28;20172;-70
2022/09/22 02:39:23;;;;;;;9.83;7.27;;;6.10;99.90;;;;;;5030265;28;20211;-70
2022/09/22 02:42:00;;;;;;;13.60;8.27;;;6.10;99.90;;;;;;5029117;28;20649;-70
2022/09/22 02:44:50;;;;;;;10.10;7.67;;;6.00;99.90;;;;;;5016354;28;20258;-70
2022/09/22 02:47:31;;;;;;;8.07;7.20;;;6.00;99.90;;;;;;5016327;28;20184;-70
2022/09/22 02:49:58;;;;;;;8.40;7.03;;;5.90;99.90;;;;;;5016152;28;20187;-71
2022/09/22 02:52:24;;;;;;;10.20;7.07;;;5.90;99.90;;;;;;5015070;28;20238;-71
2022/09/22 02:54:52;;;;;;;8.53;7.10;;;5.80;99.90;;;;;;5016111;28;20206;-70
2022/09/22 02:57:19;;;;;;;6.93;6.23;;;5.70;99.90;;;;;;5011821;28;20638;-70
2022/09/22 02:59:45;;;;;;;7.50;6.63;;;5.50;99.90;;;;;;4995379;28;20299;-71
2022/09/22 03:02:10;;;;;;;6.97;6.27;;;5.50;99.90;;;;;;4996762;28;20215;-71
2022/09/22 03:04:36;;;;;;;12.10;6.97;;;5.40;99.90;;;;;;4996585;28;20231;-69
2022/09/22 03:07:02;;;;;;;11.97;6.70;;;5.30;99.90;;;;;;5015879;28;20274;-69
2022/09/22 03:09:28;;;;;;;13.87;7.10;;;5.20;99.90;;;;;;5033937;28;20198;-69
2022/09/22 03:11:53;;;;;;;9.73;6.60;;;5.30;99.90;;;;;;5027993;28;20270;-69
2022/09/22 03:14:19;;;;;;;6.30;5.70;;;5.30;99.90;;;;;;5016351;28;20188;-69
2022/09/22 03:16:45;;;;;;;8.50;6.63;;;5.10;99.90;;;;;;5015502;28;20176;-70
2022/09/22 03:19:11;;;;;;;6.87;6.20;;;5.10;99.90;;;;;;5015880;28;20221;-69
2022/09/22 03:21:37;;;;;;;7.23;5.77;;;5.10;99.90;;;;;;5015685;28;20180;-70
2022/09/22 03:24:02;;;;;;;6.30;5.70;;;5.20;99.90;;;;;;5015588;28;20203;-70
2022/09/22 03:26:28;;;;;;;7.07;6.37;;;5.10;99.90;;;;;;5015260;28;20179;-70
2022/09/22 03:28:54;;;;;;;6.37;5.73;;;5.10;99.90;;;;;;4999700;28;20212;-69
2022/09/22 03:31:20;;;;;;;6.47;5.87;;;5.10;99.90;;;;;;4995854;28;20181;-70
2022/09/22 03:33:46;;;;;;;9.17;5.90;;;5.10;99.90;;;;;;4995982;28;20246;-69
2022/09/22 03:36:12;;;;;;;6.60;6.00;;;5.10;99.90;;;;;;5003261;28;20179;-69
2022/09/22 03:38:38;;;;;;;7.07;6.20;;;5.10;99.90;;;;;;5033433;28;20233;-70
2022/09/22 03:41:05;;;;;;;7.97;6.13;;;5.20;99.90;;;;;;5033877;28;20168;-70
2022/09/22 03:43:31;;;;;;;6.00;5.50;;;5.20;99.90;;;;;;5013965;28;20188;-69
2022/09/22 03:46:01;;;;;;;5.97;5.47;;;5.20;99.90;;;;;;5015207;28;20172;-70
2022/09/22 03:48:28;;;;;;;6.50;5.90;;;5.20;99.90;;;;;;5013681;28;20229;-70
2022/09/22 03:50:55;;;;;;;6.50;5.90;;;5.20;99.90;;;;;;5013811;28;20223;-69
2022/09/22 03:53:22;;;;;;;6.30;5.70;;;5.10;99.90;;;;;;5014983;28;20706;-70
2022/09/22 03:55:47;;;;;;;7.70;5.57;;;5.00;99.90;;;;;;5014947;28;20663;-70
2022/09/22 03:58:14;;;;;;;6.00;5.43;;;4.90;99.90;;;;;;5004529;28;20205;-70
2022/09/22 04:00:39;;;;;;;6.50;5.67;;;4.90;99.90;;;;;;4995549;28;20532;-70
2022/09/22 04:03:05;;;;;;;7.00;5.83;;;4.80;99.90;;;;;;4995209;28;20279;-69
2022/09/22 04:05:31;;;;;;;6.60;5.90;;;4.90;99.90;;;;;;4995218;28;20255;-69
2022/09/22 04:07:58;;;;;;;6.90;6.07;;;5.00;99.90;;;;;;5031545;28;20225;-69
2022/09/22 04:10:24;;;;;;;7.00;6.20;;;5.00;99.90;;;;;;5033049;28;20198;-69
2022/09/22 04:12:50;;;;;;;8.20;6.47;;;5.10;99.90;;;;;;5019230;28;20194;-70
2022/09/22 04:15:15;;;;;;;9.77;6.93;;;5.10;99.90;;;;;;5014764;28;20175;-69
2022/09/22 04:17:41;;;;;;;10.67;7.67;;;5.10;99.90;;;;;;5013850;28;20774;-69
2022/09/22 04:20:10;;;;;;;12.50;8.27;;;5.20;99.90;;;;;;5013105;28;20274;-70
2022/09/22 04:22:35;;;;;;;12.03;9.03;;;5.20;99.90;;;;;;5015318;28;20179;-69
2022/09/22 04:25:01;;;;;;;9.30;8.23;;;5.10;99.90;;;;;;5014390;28;20175;-69
2022/09/22 04:27:27;;;;;;;11.67;8.03;;;5.10;99.90;;;;;;5014262;28;20234;-70
2022/09/22 04:29:53;;;;;;;13.80;8.50;;;5.10;99.90;;;;;;5014547;28;20231;-69
2022/09/22 04:32:18;;;;;;;11.40;8.60;;;5.10;99.90;;;;;;5014297;28;20203;-70
2022/09/22 04:34:44;;;;;;;12.37;8.67;;;5.10;99.90;;;;;;5014595;28;20223;-70
2022/09/22 04:37:11;;;;;;;12.20;8.03;;;5.10;99.90;;;;;;5026191;28;20759;-70
2022/09/22 04:39:37;;;;;;;9.90;8.47;;;5.10;99.90;;;;;;5033866;28;20559;-69
2022/09/22 04:42:03;;;;;;;13.30;9.40;;;5.10;99.90;;;;;;5025564;28;20176;-69
2022/09/22 04:44:28;;;;;;;14.00;9.50;;;5.10;99.90;;;;;;5014841;28;20168;-69
2022/09/22 04:46:56;;;;;;;11.10;9.00;;;5.20;99.90;;;;;;5014117;28;20199;-70
2022/09/22 04:49:22;;;;;;;10.77;8.60;;;5.10;99.90;;;;;;5014326;28;20634;-70
2022/09/22 04:51:48;;;;;;;13.47;9.47;;;5.10;99.90;;;;;;5012958;28;20194;-69
2022/09/22 04:54:13;;;;;;;11.83;9.17;;;5.10;99.90;;;;;;5013729;28;20172;-69
2022/09/22 04:56:43;;;;;;;15.57;10.40;;;5.10;99.90;;;;;;5013852;28;20251;-69
2022/09/22 04:59:08;;;;;;;13.13;9.57;;;5.00;99.90;;;;;;4994764;28;20689;-70
2022/09/22 05:01:35;;;;;;;9.80;8.07;;;5.00;99.90;;;;;;4994148;28;20184;-69
2022/09/22 05:04:01;;;;;;;10.90;7.90;;;4.90;99.90;;;;;;4994470;28;20176;-69
2022/09/22 05:06:26;;;;;;;11.30;7.57;;;4.90;99.90;;;;;;5006019;28;20181;-69
2022/09/22 05:08:52;;;;;;;10.30;8.07;;;4.90;99.90;;;;;;5033080;28;20206;-70
2022/09/22 05:11:22;;;;;;;12.53;8.80;;;4.80;99.90;;;;;;5029554;28;20989;-69
2022/09/22 05:13:49;;;;;;;13.40;9.60;;;4.80;99.90;;;;;;5012791;28;20187;-69
2022/09/22 05:16:16;;;;;;;14.20;9.13;;;4.90;99.90;;;;;;5012582;28;20184;-70
2022/09/22 05:18:42;;;;;;;12.23;8.23;;;4.90;99.90;;;;;;5013914;28;20200;-70
2022/09/22 05:21:08;;;;;;;13.23;8.80;;;4.90;99.90;;;;;;5014062;28;20628;-70
2022/09/22 05:23:34;;;;;;;11.17;9.37;;;4.90;99.90;;;;;;5013735;28;20172;-71
2022/09/22 05:26:00;;;;;;;12.77;8.87;;;4.90;99.90;;;;;;5013721;28;20183;-70
2022/09/22 05:28:26;;;;;;;11.13;8.57;;;4.90;99.90;;;;;;5002153;28;20184;-70
2022/09/22 05:30:52;;;;;;;11.37;8.20;;;4.70;99.90;;;;;;4997828;28;20173;-70
2022/09/22 05:33:18;;;;;;;10.43;8.10;;;4.60;99.90;;;;;;4996465;28;20181;-70
2022/09/22 05:35:44;;;;;;;10.33;8.70;;;4.60;99.90;;;;;;4998006;28;20185;-70
2022/09/22 05:38:10;;;;;;;9.53;8.30;;;4.50;99.90;;;;;;5036018;28;20210;-70
2022/09/22 05:40:35;;;;;;;13.70;9.53;;;4.50;99.90;;;;;;5037297;28;20203;-70
2022/09/22 05:43:01;;;;;;;9.67;8.50;;;4.60;99.90;;;;;;5018885;28;20188;-70
2022/09/22 05:45:27;;;;;;;10.80;8.40;;;4.60;99.90;;;;;;5016293;28;20214;-70
2022/09/22 05:47:52;;;;;;;10.40;8.30;;;4.70;99.90;;;;;;5016154;28;20270;-70
2022/09/22 05:50:19;;;;;;;8.13;6.87;;;4.80;99.90;;;;;;5017181;28;20192;-69
2022/09/22 05:52:45;;;;;;;9.97;7.20;;;4.90;99.90;;;;;;5016020;28;20188;-69
2022/09/22 05:55:12;;;;;;;7.90;6.73;;;4.80;99.90;;;;;;5015734;28;20180;-69
2022/09/22 05:57:38;;;;;;;7.40;6.70;;;5.00;99.90;;;;;;5011568;28;20727;-70
2022/09/22 06:00:07;;;;;;;10.23;7.53;;;5.00;99.90;;;;;;4997646;28;20207;-70
2022/09/22 06:02:33;;;;;;;8.90;7.10;;;5.00;99.90;;;;;;4997260;28;20223;-70
2022/09/22 06:04:59;;;;;;;13.07;7.70;;;5.10;99.90;;;;;;4997806;28;20176;-70
2022/09/22 06:07:25;;;;;;;10.57;8.20;;;5.20;99.90;;;;;;5023816;28;20210;-70
2022/09/22 06:09:50;;;;;;;9.00;8.07;;;5.30;99.90;;;;;;5035274;28;20226;-70
2022/09/22 06:12:17;;;;;;;10.17;8.30;;;5.30;99.90;;;;;;5026208;28;20180;-70
2022/09/22 06:14:43;;;;;;;10.03;8.33;;;5.30;99.90;;;;;;5017079;28;20542;-71
2022/09/22 06:17:10;;;;;;;13.00;8.63;;;5.40;99.90;;;;;;5017237;28;20196;-71
2022/09/22 06:19:39;;;;;;;10.13;8.67;;;5.50;99.90;;;;;;5017414;28;20188;-72
2022/09/22 06:22:07;;;;;;;11.70;8.10;;;5.60;99.90;;;;;;5016916;28;20172;-71
2022/09/22 06:24:33;;;;;;;9.90;8.47;;;5.70;99.90;;;;;;5014989;28;20176;-71
2022/09/22 06:26:58;;;;;;;11.30;8.50;;;5.80;99.90;;;;;;5016973;28;20587;-71
2022/09/22 06:29:24;;;;;;;12.77;8.80;;;5.90;99.90;;;;;;4997019;28;20219;-71
2022/09/22 06:31:50;;;;;;;10.50;8.13;;;6.10;99.90;;;;;;4995627;28;20534;-71
2022/09/22 06:34:17;;;;;;;10.60;8.83;;;6.10;99.90;;;;;;4997189;28;20239;-71
2022/09/22 06:36:44;;;;;;;13.53;8.73;;;6.20;99.90;;;;;;5012021;28;20186;-71
2022/09/22 06:39:11;;;;;;;14.30;9.37;;;6.30;99.90;;;;;;5035004;28;20675;-71
2022/09/22 06:41:36;;;;;;;12.63;8.90;;;6.40;99.90;;;;;;5030675;28;20188;-71
2022/09/22 06:44:04;;;;;;;11.90;9.93;;;6.60;99.90;;;;;;5015844;28;20230;-71
2022/09/22 06:46:32;;;;;;;16.60;10.00;;;6.70;99.90;;;;;;5016754;28;20203;-71
2022/09/22 06:48:59;;;;;;;13.13;9.17;;;6.70;99.90;;;;;;5017040;28;20192;-71
2022/09/22 06:51:26;;;;;;;12.70;9.33;;;6.80;99.90;;;;;;5016663;28;20183;-71
2022/09/22 06:53:56;;;;;;;12.80;9.83;;;7.00;99.90;;;;;;5016360;28;20646;-71
2022/09/22 06:56:26;;;;;;;11.50;8.70;;;7.10;99.90;;;;;;5015147;28;20243;-71
2022/09/22 06:58:53;;;;;;;13.47;9.83;;;7.20;99.90;;;;;;5000647;28;20236;-71
2022/09/22 07:01:18;;;;;;;11.87;9.03;;;7.30;99.90;;;;;;5011526;28;20235;-71
2022/09/22 07:03:45;;;;;;;12.80;9.90;;;7.40;99.90;;;;;;4996383;28;20172;-71
2022/09/22 07:06:16;;;;;;;14.83;8.87;;;7.50;99.90;;;;;;5003781;28;20206;-71
2022/09/22 07:08:43;;;;;;;15.20;9.27;;;7.60;99.90;;;;;;5036042;28;20278;-71
2022/09/22 07:11:09;;;;;;;9.07;7.73;;;7.70;99.90;;;;;;5033822;28;20171;-71
2022/09/22 07:13:38;;;;;;;12.20;8.77;;;7.80;99.90;;;;;;5015769;28;20226;-71
2022/09/22 07:16:08;;;;;;;17.50;9.50;;;7.90;99.90;;;;;;5016038;28;20168;-71
2022/09/22 07:18:39;;;;;;;13.10;9.00;;;8.00;99.90;;;;;;5015504;28;20228;-72
2022/09/22 07:21:06;;;;;;;9.83;7.80;;;8.10;99.90;;;;;;5014413;28;20174;-71
2022/09/22 07:23:35;;;;;;;11.53;8.60;;;8.20;99.90;;;;;;5015888;28;20179;-72
2022/09/22 07:26:05;;;;;;;11.20;8.20;;;8.30;99.90;;;;;;5015491;28;20580;-72
2022/09/22 07:28:33;;;;;;;12.33;8.03;;;8.40;99.90;;;;;;5002954;28;20223;-72
2022/09/22 07:31:06;;;;;;;10.60;9.07;;;8.50;99.90;;;;;;4996028;28;20243;-72
2022/09/22 07:33:33;;;;;;;9.63;7.03;;;8.60;99.90;;;;;;4994653;28;20230;-71
2022/09/22 07:36:14;;;;;;;11.97;8.37;;;8.70;99.90;;;;;;4998802;28;20176;-71
2022/09/22 07:38:42;;;;;;;8.63;7.03;;;8.80;99.90;;;;;;5033725;28;20613;-72
2022/09/22 07:41:11;;;;;;;8.27;7.37;;;9.00;99.90;;;;;;5033458;28;20194;-72
2022/09/22 07:43:38;;;;;;;9.30;7.10;;;9.10;99.90;;;;;;5014049;28;20222;-72
2022/09/22 07:46:04;;;;;;;9.33;7.73;;;9.30;99.90;;;;;;5015302;28;20156;-72
2022/09/22 07:48:36;;;;;;;9.80;7.43;;;9.50;99.90;;;;;;5015045;28;20421;-72
2022/09/22 07:51:04;;;;;;;10.53;8.30;;;9.60;99.90;;;;;;5013878;28;20195;-72
2022/09/22 07:53:30;;;;;;;8.73;7.17;;;9.70;99.90;;;;;;5015211;28;20183;-72
2022/09/22 07:56:02;;;;;;;8.40;6.97;;;9.90;99.90;;;;;;5014816;28;20650;-72
2022/09/22 07:58:29;;;;;;;7.70;6.90;;;10.00;99.90;;;;;;5002790;28;20246;-72
2022/09/22 08:00:54;;;;;;;7.20;6.23;;;10.20;99.90;;;;;;4995482;28;20161;-72
2022/09/22 08:03:20;;;;;;;11.53;7.10;;;10.30;99.90;;;;;;4995295;28;20216;-72
2022/09/22 08:05:48;;;;;;;13.60;6.80;;;10.50;99.90;;;;;;4995971;28;20512;-72
2022/09/22 08:08:15;;;;;;;8.57;6.83;;;10.60;99.90;;;;;;5034757;28;20589;-72
2022/09/22 08:10:41;;;;;;;8.57;6.80;;;10.80;99.90;;;;;;5034339;28;20171;-72
2022/09/22 08:13:08;;;;;;;11.07;6.80;;;11.00;99.90;;;;;;5017101;28;20187;-72
2022/09/22 08:15:34;;;;;;;6.57;5.90;;;11.20;99.90;;;;;;5014758;28;20235;-72
2022/09/22 08:18:02;;;;;;;6.37;5.40;;;11.40;99.90;;;;;;5014889;28;20676;-72
2022/09/22 08:20:28;;;;;;;6.97;5.23;;;11.40;99.90;;;;;;5014102;28;20196;-72
2022/09/22 08:23:00;;;;;;;6.23;5.57;;;11.50;99.90;;;;;;5015264;28;20688;-72
2022/09/22 08:25:25;;;;;;;6.60;5.93;;;11.60;99.90;;;;;;5015093;28;20156;-72
2022/09/22 08:27:52;;;;;;;6.90;6.20;;;11.70;99.90;;;;;;5006547;28;20342;-72
2022/09/22 08:30:18;;;;;;;8.90;5.90;;;11.90;99.90;;;;;;4993717;28;20235;-72
2022/09/22 08:32:44;;;;;;;7.67;5.77;;;12.10;99.90;;;;;;4995028;28;20207;-72
2022/09/22 08:35:10;;;;;;;7.57;5.80;;;12.30;99.90;;;;;;4995087;28;20230;-72
2022/09/22 08:37:36;;;;;;;6.80;4.97;;;12.50;99.90;;;;;;5025318;28;20764;-72
2022/09/22 08:40:04;;;;;;;6.83;5.13;;;12.50;99.90;;;;;;5032885;28;20624;-72
2022/09/22 08:42:32;;;;;;;6.90;5.37;;;12.60;99.90;;;;;;5021537;28;20183;-72
2022/09/22 08:45:15;;;;;;;7.47;4.97;;;12.70;99.90;;;;;;5014535;28;20641;-72
2022/09/22 08:53:42;;;;;;;7.63;5.05;;;13.40;99.90;;;;;;5014423;28;20242;-72
2022/09/22 08:56:56;;;;;;;5.97;4.80;;;13.70;99.90;;;;;;5012919;28;20176;-72
2022/09/22 08:59:26;;;;;;;6.63;4.90;;;13.90;99.90;;;;;;4983546;28;20228;-72
2022/09/22 09:02:27;;;;;;;6.72;4.70;;;14.10;99.90;;;;;;4998817;28;20771;-72
2022/09/22 09:05:22;;;;;;;8.27;4.35;;;14.30;99.90;;;;;;5017491;28;20187;-72
2022/09/22 09:08:33;;;;;;;9.43;4.47;;;14.40;99.90;;;;;;5036350;28;20269;-72
2022/09/22 09:11:08;;;;;;;7.18;4.22;;;14.40;99.90;;;;;;5037122;28;20218;-72
2022/09/22 09:13:56;;;;;;;5.97;4.00;;;14.60;99.90;;;;;;5019260;28;20564;-72
2022/09/22 09:16:35;;;;;;;7.50;4.25;;;14.60;99.90;;;;;;5019185;28;20270;-72
2022/09/22 09:19:05;;;;;;;4.50;4.10;;;14.80;99.90;;;;;;5019108;28;20203;-72
2022/09/22 09:21:33;;;;;;;6.10;4.00;;;15.00;99.90;;;;;;5020429;28;20176;-72
2022/09/22 09:24:08;;;;;;;5.45;4.40;;;15.10;99.90;;;;;;5020465;28;20171;-72
2022/09/22 09:26:34;;;;;;;7.15;4.45;;;15.30;99.90;;;;;;5018994;28;20176;-72
2022/09/22 09:29:05;;;;;;;6.10;3.80;;;15.40;99.90;;;;;;5002596;28;20219;-72
2022/09/22 09:31:47;;;;;;;4.43;4.00;;;15.50;99.90;;;;;;5001108;28;20658;-72
2022/09/22 09:34:16;;;;;;;6.13;3.90;;;15.60;99.90;;;;;;5015961;28;20230;-72
2022/09/22 09:36:50;;;;;;;5.13;3.70;;;15.70;99.90;;;;;;5016892;28;20190;-72
2022/09/22 09:39:39;;;;;;;6.82;3.90;;;15.70;99.90;;;;;;5038954;28;20235;-72
2022/09/22 09:42:20;;;;;;;4.07;3.35;;;15.60;99.90;;;;;;5031300;28;20218;-72
2022/09/22 09:44:52;;;;;;;5.65;3.35;;;15.70;99.90;;;;;;5020121;28;20171;-73
2022/09/22 09:47:39;;;;;;;11.35;4.78;;;15.70;99.90;;;;;;5019381;28;20172;-72
2022/09/22 09:50:05;;;;;;;4.65;3.58;;;15.80;99.90;;;;;;5019192;28;20199;-72
2022/09/22 09:52:36;;;;;;;4.38;3.60;;;15.90;99.90;;;;;;5020560;28;20204;-72
2022/09/22 09:55:03;;;;;;;4.30;3.25;;;16.00;99.90;;;;;;5019995;28;20186;-72
2022/09/22 09:57:28;;;;;;;5.80;3.20;;;16.00;99.90;;;;;;5016272;28;20200;-73
2022/09/22 10:00:31;;;;;;;5.32;3.08;;;16.00;99.90;;;;;;5000299;28;20212;-73
2022/09/22 10:03:25;;;;;;;8.27;3.50;;;15.90;99.90;;;;;;5000404;28;20211;-72
2022/09/22 10:06:07;;;;;;;4.55;3.20;;;16.00;99.90;;;;;;4993582;28;20232;-72
2022/09/22 10:08:44;;;;;;;3.33;2.70;;;16.00;99.90;;;;;;5039918;28;20203;-72
2022/09/22 10:11:13;;;;;;;3.28;2.90;;;16.00;99.90;;;;;;5036722;28;20185;-72
2022/09/22 10:13:41;;;;;;;3.10;2.80;;;16.10;99.90;;;;;;5020133;28;20178;-72
2022/09/22 10:16:29;;;;;;;6.32;3.05;;;16.20;99.90;;;;;;5016813;28;20194;-73
2022/09/22 10:18:58;;;;;;;3.63;2.75;;;16.40;99.90;;;;;;5016761;28;20210;-73
2022/09/22 10:21:25;;;;;;;2.88;2.67;;;16.50;99.90;;;;;;5017046;28;20659;-72
2022/09/22 10:23:53;;;;;;;5.13;2.90;;;16.60;99.90;;;;;;5017176;28;20254;-72
2022/09/22 10:26:25;;;;;;;4.38;2.92;;;16.70;99.90;;;;;;5015268;28;20182;-73
2022/09/22 10:29:19;;;;;;;3.13;2.60;;;16.80;99.90;;;;;;5000137;28;20219;-72
2022/09/22 10:32:01;;;;;;;5.03;3.05;;;16.90;99.90;;;;;;4996855;28;20172;-72
2022/09/22 10:34:39;;;;;;;2.67;2.47;;;17.10;99.90;;;;;;4997264;28;20306;-72
2022/09/22 10:37:09;;;;;;;2.70;2.50;;;17.20;99.90;;;;;;5018917;28;20187;-72
2022/09/22 10:39:59;;;;;;;4.47;2.60;;;17.30;99.90;;;;;;5034601;28;20600;-72
2022/09/22 10:42:42;;;;;;;3.00;2.70;;;17.40;99.90;;;;;;5024389;28;20188;-72
2022/09/22 10:45:18;;;;;;;2.72;2.53;;;17.50;99.90;;;;;;5016427;28;20199;-72
2022/09/22 10:47:47;;;;;;;3.42;2.70;;;17.50;99.90;;;;;;5016466;28;20152;-72
2022/09/22 10:50:35;;;;;;;2.63;2.42;;;17.60;99.90;;;;;;5016159;28;20277;-72
2022/09/22 10:53:30;;;;;;;2.30;2.20;;;17.90;99.90;;;;;;5016226;28;20644;-72
2022/09/22 10:56:07;;;;;;;4.85;2.50;;;18.10;99.90;;;;;;5016209;28;20179;-73
2022/09/22 10:58:39;;;;;;;5.00;2.42;;;18.30;99.90;;;;;;5002385;28;20251;-73
2022/09/22 11:01:42;;;;;;;2.75;2.55;;;18.40;99.90;;;;;;4996175;28;20176;-73
2022/09/22 11:04:29;;;;;;;2.65;2.30;;;18.50;99.90;;;;;;4997655;28;20251;-73
2022/09/22 11:13:31;;;;;;;2.30;2.20;;;18.40;99.90;;;;;;5019683;28;20564;-72
2022/09/22 11:16:03;;;;;;;2.20;2.00;;;18.50;99.90;;;;;;5014002;28;20191;-73
2022/09/22 11:18:44;;;;;;;1.98;1.88;;;18.30;99.90;;;;;;5015592;28;20242;-73
2022/09/22 11:21:30;;;;;;;2.17;2.08;;;18.10;99.90;;;;;;5016082;28;20214;-73
2022/09/22 11:23:58;;;;;;;5.10;2.13;;;17.70;99.90;;;;;;5014389;28;20172;-73
2022/09/22 11:26:40;;;;;;;3.28;2.50;;;17.40;99.90;;;;;;5015153;28;20172;-73
2022/09/22 11:29:53;;;;;;;3.80;2.58;;;17.10;99.90;;;;;;4997076;28;20636;-73
2022/09/22 11:32:43;;;;;;;2.80;2.20;;;16.80;99.90;;;;;;4973281;28;20223;-73
2022/09/22 11:35:43;;;;;;;2.20;2.10;;;16.70;99.90;;;;;;4995963;28;20634;-73
2022/09/22 11:38:32;;;;;;;4.00;2.33;;;16.60;99.90;;;;;;5015858;28;20195;-73
2022/09/22 11:41:41;;;;;;;3.35;1.98;;;16.80;99.90;;;;;;5013926;28;20176;-73
2022/09/22 11:44:13;;;;;;;3.45;2.42;;;17.50;99.90;;;;;;4974446;28;20275;-73
2022/09/22 11:46:48;;;;;;;2.35;2.10;;;18.20;99.90;;;;;;4995819;28;20656;-73
2022/09/22 11:49:19;;;;;;;2.95;2.13;;;18.70;99.90;;;;;;4995981;28;20644;-73
2022/09/22 11:52:00;;;;;;;2.42;2.22;;;19.30;99.90;;;;;;4995891;28;20168;-73
2022/09/22 11:55:03;;;;;;;1.80;1.70;;;19.80;99.90;;;;;;4994095;28;20191;-73
2022/09/22 11:57:33;;;;;;;2.38;2.13;;;20.20;99.90;;;;;;4999274;28;20297;-73
2022/09/22 12:00:06;;;;;;;4.40;1.90;;;20.30;99.90;;;;;;5014922;28;20204;-73
2022/09/22 12:02:39;;;;;;;1.90;1.73;;;20.20;99.90;;;;;;5013650;28;20230;-73
2022/09/22 12:05:15;;;;;;;2.05;1.90;;;20.20;99.90;;;;;;5015423;28;20156;-73
2022/09/22 12:07:58;;;;;;;1.88;1.70;;;20.30;99.90;;;;;;5029738;28;20290;-73
2022/09/22 12:10:30;;;;;;;2.42;1.92;;;20.30;99.90;;;;;;5033033;28;20205;-73
2022/09/22 12:12:56;;;;;;;2.25;1.95;;;20.30;99.90;;;;;;5017494;28;20560;-73
2022/09/22 12:15:38;;;;;;;2.17;1.73;;;20.40;99.90;;;;;;5015024;28;20184;-73
2022/09/22 12:18:13;;;;;;;4.00;2.03;;;20.70;99.90;;;;;;5014804;28;20183;-73
2022/09/22 12:21:13;;;;;;;2.35;1.80;;;20.70;99.90;;;;;;5014915;28;20163;-73
2022/09/22 12:23:40;;;;;;;2.10;1.83;;;20.60;99.90;;;;;;4982979;28;20187;-73
2022/09/22 12:26:12;;;;;;;2.28;1.90;;;20.40;99.90;;;;;;5014164;28;20172;-73
2022/09/22 12:28:46;;;;;;;2.08;1.90;;;20.70;99.90;;;;;;5002341;28;20200;-73
2022/09/22 12:31:15;;;;;;;3.33;1.92;;;20.60;99.90;;;;;;4994517;28;20644;-73
2022/09/22 12:33:48;;;;;;;1.73;1.60;;;20.70;99.90;;;;;;4993950;28;20196;-73
2022/09/22 12:36:16;;;;;;;1.90;1.80;;;20.90;99.90;;;;;;5003416;28;20214;-73
2022/09/22 12:38:43;;;;;;;3.03;1.73;;;21.10;99.90;;;;;;5034046;28;20217;-73
2022/09/22 12:41:17;;;;;;;2.17;1.70;;;21.10;99.90;;;;;;5032860;28;20174;-73
2022/09/22 12:43:44;;;;;;;2.70;1.83;;;20.80;99.90;;;;;;5013466;28;20667;-73
2022/09/22 12:46:23;;;;;;;2.13;1.90;;;20.60;99.90;;;;;;5013277;28;20199;-73
2022/09/22 12:48:50;;;;;;;2.03;1.80;;;20.50;99.90;;;;;;5013004;28;20314;-73
2022/09/22 12:51:28;;;;;;;2.08;1.90;;;20.70;99.90;;;;;;5014956;28;20182;-73
2022/09/22 12:54:21;;;;;;;1.60;1.50;;;21.10;99.90;;;;;;5014440;28;20275;-73
2022/09/22 12:56:53;;;;;;;2.83;1.70;;;21.40;99.90;;;;;;5014157;28;20167;-73
2022/09/22 12:59:37;;;;;;;1.83;1.55;;;21.80;99.90;;;;;;4995315;28;20270;-73
2022/09/22 13:02:14;;;;;;;3.92;1.55;;;22.20;99.90;;;;;;4994401;28;20176;-73
2022/09/22 13:04:41;;;;;;;1.60;1.50;;;22.30;99.90;;;;;;4994633;28;20271;-73
2022/09/22 13:07:36;;;;;;;1.85;1.73;;;22.70;99.90;;;;;;5015953;28;20627;-73
2022/09/22 13:10:31;;;;;;;1.88;1.73;;;22.70;99.90;;;;;;5033732;28;20259;-73
2022/09/22 13:13:00;;;;;;;1.50;1.40;;;22.40;99.90;;;;;;4994260;28;20199;-73
2022/09/22 13:15:50;;;;;;;1.52;1.42;;;21.90;99.90;;;;;;5014126;28;20168;-73
2022/09/22 13:18:36;;;;;;;2.33;1.52;;;22.00;99.90;;;;;;5012316;28;20199;-73
2022/09/22 13:21:19;;;;;;;2.50;1.80;;;22.10;99.90;;;;;;5014029;28;20175;-74
2022/09/22 13:23:48;;;;;;;1.80;1.70;;;22.20;99.90;;;;;;5013958;28;20163;-74
2022/09/22 13:26:15;;;;;;;2.40;1.50;;;22.00;99.90;;;;;;5012576;28;20182;-74
2022/09/22 13:28:42;;;;;;;2.30;1.60;;;21.70;99.90;;;;;;5000169;28;20203;-74
2022/09/22 13:31:16;;;;;;;2.42;1.60;;;21.40;99.90;;;;;;4994373;28;20235;-74